Terminal Aerodrome Forecast
Issued by NWS Sterling, VA

Current Version | Previous Version | Text Only | Print | Product List | Glossary Off
Versions: 1 2 3 4 5 6 7 8 9 10 11 12 13 14 15 16 17 18 19 20 21 22

308
FTUS41 KLWX 211122
TAFDCA
TAF
KDCA 211122Z 2112/2212 19007KT P6SM BKN250 WS020/22038KT
     FM211500 20012G20KT P6SM BKN250
     FM212300 19007KT P6SM BKN250
     FM220200 20006KT P6SM BKN050
     FM221100 29006KT P6SM FEW050 SCT250=

USA.gov is the U.S. government's official web portal to all federal, state and local government web resources and services.